Kampong Khleang, Cambodia

10:29 AM +07 on June 25, 2017 (GMT +0700)
Siem Reap | | Change Station

Elev 49 ft 13.37 °N, 103.85 °E | Updated 29 minutes ago

Overcast
Overcast
84 °F
Feels Like 94 °F
N
6
Wind Variable Wind from SSW

Today
High -- | Low -- °F
--% Chance of Precip.
Yesterday
High -- | Low -- °F
Precip. -- in
Pressure 29.74 in
Visibility 6.2 miles
Clouds Scattered Clouds 1500 ft
Scattered Clouds 4000 ft
Heat Index 94 °F
Dew Point 77 °F
Humidity 79%
Rainfall 0.00 in
Snow Depth Not available.
5:39 AM 6:33 PM
New Moon, 2% visible
METAR VDSR 250300Z 21005KT 170V230 9999 SCT015 SCT040 29/25 Q1007
Pressure 29.74 in
Visibility 6.2 miles
Clouds Scattered Clouds 1500 ft
Scattered Clouds 4000 ft
Heat Index 94 °F
Dew Point 77 °F
Humidity 79%
Rainfall 0.00 in
Snow Depth Not available.
5:39 AM 6:33 PM
New Moon, 2% visible
METAR VDSR 250300Z 21005KT 170V230 9999 SCT015 SCT040 29/25 Q1007

Get Severe Weather Alerts

Thanks for signing up!

Be on the lookout for a verification email in your inbox.

You'll start receiving the daily forecast at 6 AM.

×

10-Day Weather Forecast

No radar image for this location.
×

Almanac

Astronomy

Jun. 25, 2017 Rise Set
Actual Time
Civil Twilight
Nautical Twilight
Astronomical Twilight
Moon
Length of Visible Light
Length of Day
Tomorrow will be .
, % of the Moon is Illuminated

Today's Extremes

Country Highs Country Lows

Community

WunderPhotos

Category 6

Welcome to Category 6. This is the collective home for Weather Underground's featured writeups by Dr. Jeff Masters (right), Bob Henson (left), Chris Burt, and other regular contributors.

Nearby

Air Quality

  Air Quality AQ Index Pollutant
Not available.

Snow Depth

Station Depth Elevation

Earthquake Activity

City Distance Mag. Time & Date
Minimum magnitude displayed is 2.5.

Coastal Water Temperatures

Place Temperature

Stations

Nearby Weather Stations

Station Location Temp. Windchill Dew Point Humidity Wind Precip. Elev Updated Type